createdAt,value
2022-12-28T00:01:08.824Z,4.90
2022-12-28T00:08:41.184Z,4.80
2022-12-28T00:11:20.561Z,4.80
2022-12-28T00:16:29.135Z,4.80
2022-12-28T00:23:58.891Z,4.80
2022-12-28T00:26:28.213Z,4.90
2022-12-28T00:39:27.269Z,4.80
2022-12-28T00:42:01.034Z,4.80
2022-12-28T00:54:30.860Z,5.60
2022-12-28T00:57:02.130Z,4.70
2022-12-28T01:09:35.991Z,4.60
2022-12-28T01:14:33.388Z,4.60
2022-12-28T01:27:02.896Z,4.70
2022-12-28T01:44:43.609Z,1.20
2022-12-28T01:47:15.820Z,4.70
2022-12-28T01:49:49.014Z,4.60
2022-12-28T01:52:22.691Z,4.60
2022-12-28T01:54:55.510Z,4.60
2022-12-28T01:57:27.975Z,4.60
2022-12-28T02:00:02.440Z,5.30
2022-12-28T02:02:42.170Z,4.50
2022-12-28T02:05:10.885Z,8.60
2022-12-28T02:07:47.634Z,4.50
2022-12-28T02:10:43.732Z,4.40
2022-12-28T02:13:06.650Z,4.50
2022-12-28T02:15:36.264Z,4.50
2022-12-28T02:20:41.971Z,4.50
2022-12-28T02:23:36.916Z,4.50
2022-12-28T02:26:39.809Z,4.60
2022-12-28T02:29:52.376Z,4.60
2022-12-28T02:32:35.162Z,5.10
2022-12-28T02:35:09.359Z,4.60
2022-12-28T02:37:43.565Z,4.60
2022-12-28T02:40:16.601Z,4.60
2022-12-28T02:42:46.237Z,4.60
2022-12-28T02:45:49.729Z,4.60
2022-12-28T02:48:36.909Z,4.50
2022-12-28T02:51:24.665Z,4.50
2022-12-28T02:54:11.152Z,4.50
2022-12-28T02:56:46.389Z,4.50
2022-12-28T02:59:31.493Z,4.40
2022-12-28T03:02:29.932Z,2.00
2022-12-28T03:05:10.112Z,4.40
2022-12-28T03:08:03.991Z,6.40
2022-12-28T03:10:39.867Z,4.70
2022-12-28T03:13:32.125Z,5.80
2022-12-28T03:16:06.029Z,4.30
2022-12-28T03:18:53.042Z,4.30
2022-12-28T03:21:41.825Z,4.40
2022-12-28T03:24:30.776Z,4.30
2022-12-28T03:27:18.861Z,4.40
2022-12-28T03:30:17.784Z,4.30
2022-12-28T03:32:47.680Z,4.30
2022-12-28T03:37:55.164Z,4.30
2022-12-28T03:40:32.260Z,4.30
2022-12-28T03:43:23.165Z,4.30
2022-12-28T03:45:55.983Z,4.30
2022-12-28T03:50:58.195Z,6.30
2022-12-28T03:53:37.094Z,4.30
2022-12-28T03:56:09.117Z,4.30
2022-12-28T04:08:36.147Z,4.30
2022-12-28T04:16:14.079Z,4.40
2022-12-28T04:21:13.279Z,4.40
2022-12-28T04:23:44.832Z,4.50
2022-12-28T04:39:25.637Z,4.40
2022-12-28T04:56:45.744Z,4.40
2022-12-28T05:01:44.064Z,4.40
2022-12-28T05:14:07.510Z,4.50
2022-12-28T05:26:32.362Z,4.60
2022-12-28T05:31:30.506Z,4.50
2022-12-28T05:36:28.352Z,4.70
2022-12-28T05:38:57.817Z,6.90
2022-12-28T05:41:30.233Z,4.70
2022-12-28T05:43:59.708Z,4.70
2022-12-28T05:46:31.352Z,4.80
2022-12-28T05:51:30.421Z,4.80
2022-12-28T05:54:00.424Z,4.80
2022-12-28T05:56:30.727Z,4.80
2022-12-28T05:59:01.659Z,4.80
2022-12-28T06:01:33.200Z,4.90
2022-12-28T06:04:03.063Z,4.90
2022-12-28T06:06:32.417Z,4.90
2022-12-28T06:09:04.243Z,4.90
2022-12-28T06:11:33.149Z,4.90
2022-12-28T06:16:35.026Z,4.90
2022-12-28T06:19:06.709Z,4.90
2022-12-28T06:21:36.763Z,4.90
2022-12-28T06:24:05.897Z,5.00
2022-12-28T06:26:35.838Z,5.00
2022-12-28T06:31:35.842Z,5.00
2022-12-28T06:34:05.895Z,5.10
2022-12-28T06:36:36.439Z,5.10
2022-12-28T06:39:07.009Z,5.10
2022-12-28T06:46:33.467Z,5.20
2022-12-28T06:51:32.070Z,5.20
2022-12-28T06:56:30.889Z,5.20
2022-12-28T06:59:03.223Z,5.20
2022-12-28T07:01:35.327Z,5.30
2022-12-28T07:04:05.124Z,5.30
2022-12-28T07:06:36.849Z,5.30
2022-12-28T07:09:07.773Z,5.30
2022-12-28T07:21:35.153Z,5.30
2022-12-28T07:26:33.956Z,5.30
2022-12-28T07:29:04.749Z,5.20
2022-12-28T07:31:43.714Z,5.30
2022-12-28T07:34:20.461Z,5.30
2022-12-28T07:36:50.408Z,5.30
2022-12-28T07:46:58.928Z,5.40
2022-12-28T08:02:00.940Z,5.50
2022-12-28T08:19:20.952Z,5.60
2022-12-28T08:24:19.664Z,5.60
2022-12-28T08:26:49.581Z,5.60
2022-12-28T08:29:20.266Z,4.60
2022-12-28T08:31:49.225Z,5.60
2022-12-28T08:34:19.267Z,5.70
2022-12-28T08:36:48.717Z,5.70
2022-12-28T08:52:07.665Z,5.80
2022-12-28T09:09:30.119Z,6.10
2022-12-28T09:26:55.363Z,6.50
2022-12-28T09:42:06.683Z,7.00
2022-12-28T09:44:50.570Z,7.00
2022-12-28T09:47:28.231Z,7.10
2022-12-28T09:50:07.246Z,4.90
2022-12-28T09:52:38.219Z,7.20
2022-12-28T09:55:13.786Z,8.10
2022-12-28T09:57:47.359Z,7.30
2022-12-28T10:00:21.443Z,3.80
2022-12-28T10:02:53.483Z,7.40
2022-12-28T10:05:22.726Z,7.50
2022-12-28T10:07:52.428Z,7.50
2022-12-28T10:10:23.777Z,5.30
2022-12-28T10:12:56.962Z,7.60
2022-12-28T10:15:29.129Z,7.70
2022-12-28T10:22:59.384Z,7.90
2022-12-28T10:25:28.070Z,7.90
2022-12-28T10:27:57.931Z,8.00
2022-12-28T10:30:29.631Z,8.00
2022-12-28T10:33:03.186Z,8.10
2022-12-28T10:35:35.980Z,8.20
2022-12-28T10:38:07.537Z,8.40
2022-12-28T10:40:39.395Z,8.60
2022-12-28T10:43:20.327Z,8.70
2022-12-28T10:45:50.912Z,8.80
2022-12-28T10:48:22.398Z,8.90
2022-12-28T10:50:53.987Z,9.00
2022-12-28T10:53:29.526Z,9.10
2022-12-28T10:56:29.944Z,9.10
2022-12-28T10:59:21.504Z,9.20
2022-12-28T11:04:20.396Z,9.30
2022-12-28T11:06:56.570Z,9.20
2022-12-28T11:09:26.705Z,9.50
2022-12-28T11:12:12.930Z,9.50
2022-12-28T11:14:43.088Z,9.60
2022-12-28T11:17:18.553Z,7.90
2022-12-28T11:19:47.957Z,9.70
2022-12-28T11:22:21.871Z,9.80
2022-12-28T11:24:53.473Z,9.90
2022-12-28T11:27:24.737Z,10.00
2022-12-28T11:29:56.010Z,10.00
2022-12-28T11:32:27.320Z,8.40
2022-12-28T11:34:58.023Z,10.10
2022-12-28T11:42:55.283Z,10.40
2022-12-28T11:45:58.688Z,10.40
2022-12-28T11:48:49.859Z,10.60
2022-12-28T11:51:20.394Z,10.60
2022-12-28T11:53:59.934Z,10.80
2022-12-28T11:56:59.555Z,10.80
2022-12-28T11:59:29.043Z,10.80
2022-12-28T12:02:03.191Z,10.90
2022-12-28T12:04:40.725Z,13.20
2022-12-28T12:07:24.744Z,10.90
2022-12-28T12:10:22.820Z,10.90
2022-12-28T12:12:53.831Z,11.10
2022-12-28T12:15:38.081Z,11.10
2022-12-28T12:18:14.958Z,11.20
2022-12-28T12:21:04.314Z,11.20
2022-12-28T12:23:42.646Z,11.30
2022-12-28T12:26:30.784Z,11.30
2022-12-28T12:29:09.196Z,11.70
2022-12-28T12:31:44.252Z,11.40
2022-12-28T12:34:20.019Z,11.50
2022-12-28T12:37:29.002Z,11.50
2022-12-28T12:40:36.832Z,11.60
2022-12-28T12:43:22.291Z,11.50
2022-12-28T12:45:56.877Z,11.60
2022-12-28T12:48:47.390Z,11.60
2022-12-28T12:51:26.776Z,11.50
2022-12-28T12:54:19.744Z,16.30
2022-12-28T12:56:55.465Z,11.80
2022-12-28T12:59:46.471Z,16.40
2022-12-28T13:02:48.670Z,11.80
2022-12-28T13:05:20.652Z,11.70
2022-12-28T13:07:56.599Z,11.70
2022-12-28T13:10:30.187Z,11.70
2022-12-28T13:13:01.722Z,11.60
2022-12-28T13:15:31.024Z,11.60
2022-12-28T13:20:57.443Z,11.50
2022-12-28T13:23:34.525Z,11.50
2022-12-28T13:26:03.923Z,11.40
2022-12-28T13:28:34.487Z,11.40
2022-12-28T13:31:11.202Z,10.70
2022-12-28T13:33:40.441Z,11.40
2022-12-28T13:36:20.927Z,11.40
2022-12-28T13:39:08.053Z,11.40
2022-12-28T13:44:25.837Z,11.40
2022-12-28T13:47:02.967Z,11.40
2022-12-28T13:49:40.410Z,11.40
2022-12-28T13:52:16.746Z,10.70
2022-12-28T13:59:35.939Z,11.20
2022-12-28T14:02:05.711Z,11.10
2022-12-28T14:07:25.838Z,11.00
2022-12-28T14:14:56.946Z,10.90
2022-12-28T14:17:26.522Z,10.90
2022-12-28T14:19:57.659Z,10.90
2022-12-28T14:22:27.969Z,10.90
2022-12-28T14:25:05.616Z,10.80
2022-12-28T14:27:38.475Z,14.70
2022-12-28T14:30:24.530Z,10.90
2022-12-28T14:32:57.639Z,8.60
2022-12-28T14:35:29.699Z,10.90
2022-12-28T14:38:00.477Z,10.80
2022-12-28T14:40:34.872Z,10.80
2022-12-28T14:43:08.175Z,10.80
2022-12-28T14:46:06.759Z,10.80
2022-12-28T14:48:37.458Z,9.70
2022-12-28T14:51:23.707Z,10.70
2022-12-28T14:54:20.094Z,10.60
2022-12-28T14:56:53.343Z,10.60
2022-12-28T14:59:26.807Z,10.60
2022-12-28T15:01:56.453Z,10.60
2022-12-28T15:04:35.980Z,14.40
2022-12-28T15:07:05.222Z,10.60
2022-12-28T15:12:12.996Z,10.50
2022-12-28T15:17:11.501Z,10.40
2022-12-28T15:19:40.167Z,10.20
2022-12-28T15:27:05.955Z,10.20
2022-12-28T20:34:34.875Z,7.50
2022-12-28T20:40:43.982Z,8.40
2022-12-28T20:46:46.673Z,7.50
2022-12-28T20:51:51.910Z,9.10
2022-12-28T20:54:23.728Z,7.50
2022-12-28T20:56:57.924Z,7.40
2022-12-28T20:59:30.751Z,6.80
2022-12-28T21:02:04.247Z,7.20
2022-12-28T21:07:15.502Z,7.30
2022-12-28T21:20:07.514Z,7.40
2022-12-28T21:22:42.194Z,7.30
2022-12-28T21:25:12.504Z,7.30
2022-12-28T21:27:52.681Z,7.30
2022-12-28T21:30:27.019Z,7.30
2022-12-28T21:38:31.670Z,7.30
2022-12-28T21:45:06.828Z,5.30
2022-12-28T21:47:39.768Z,7.20
2022-12-28T21:50:14.811Z,7.20
2022-12-28T21:55:40.195Z,7.20
2022-12-28T22:12:58.256Z,7.10
2022-12-28T22:15:31.170Z,7.00
2022-12-28T22:18:24.669Z,7.10
2022-12-28T22:28:41.472Z,7.00
2022-12-28T22:31:12.492Z,7.00
2022-12-28T22:36:15.814Z,5.80
2022-12-28T22:38:48.450Z,7.00
2022-12-28T22:43:54.980Z,7.00
2022-12-28T22:59:16.093Z,7.10
2022-12-28T23:11:45.845Z,7.20
2022-12-28T23:14:39.601Z,7.20
2022-12-28T23:17:15.953Z,7.20
2022-12-28T23:22:53.914Z,11.30
2022-12-28T23:25:41.342Z,7.30
2022-12-28T23:28:11.804Z,7.30
2022-12-28T23:30:44.097Z,7.20
2022-12-28T23:40:39.784Z,7.20
2022-12-28T23:45:36.924Z,7.30
2022-12-28T23:48:06.677Z,7.40
